TimeEDT,TemperatureF,Dew PointF,Humidity,Sea Level PressureIn,VisibilityMPH,Wind Direction,Wind SpeedMPH,Gust SpeedMPH,PrecipitationIn,Events,Conditions,WindDirDegrees,DateUTC
12:56 AM,64.0,55.9,75,29.98,10.0,South,6.9,-,N/A,,Clear,180,2013-08-01 04:56:00
1:56 AM,64.0,57.0,78,29.95,10.0,South,4.6,-,N/A,,Clear,170,2013-08-01 05:56:00
2:56 AM,64.0,59.0,84,29.92,10.0,South,11.5,16.1,N/A,,Mostly Cloudy,170,2013-08-01 06:56:00
3:56 AM,64.9,60.1,84,29.90,10.0,SSE,9.2,-,N/A,,Overcast,160,2013-08-01 07:56:00
4:43 AM,64.4,60.8,88,29.93,10.0,Variable,4.6,-,N/A,,Overcast,0,2013-08-01 08:43:00
4:56 AM,64.9,60.1,84,29.89,10.0,South,5.8,-,N/A,,Overcast,180,2013-08-01 08:56:00
5:08 AM,64.4,60.8,88,29.92,10.0,South,8.1,-,N/A,,Overcast,190,2013-08-01 09:08:00
5:56 AM,64.9,60.1,84,29.88,10.0,South,4.6,-,N/A,,Overcast,190,2013-08-01 09:56:00
6:56 AM,64.0,60.1,87,29.89,8.0,SSW,5.8,-,N/A,,Overcast,200,2013-08-01 10:56:00
7:47 AM,64.4,60.8,88,29.92,10.0,SW,8.1,-,N/A,,Overcast,220,2013-08-01 11:47:00
7:56 AM,64.9,60.1,84,29.90,10.0,SSW,6.9,-,N/A,,Overcast,210,2013-08-01 11:56:00
8:28 AM,64.4,60.8,88,29.92,4.0,SW,4.6,-,0.00,Rain,Light Rain,220,2013-08-01 12:28:00
8:56 AM,64.0,61.0,90,29.88,10.0,South,8.1,-,0.03,,Mostly Cloudy,190,2013-08-01 12:56:00
9:00 AM,64.4,60.8,88,29.90,10.0,SSW,4.6,-,N/A,,Mostly Cloudy,200,2013-08-01 13:00:00
9:11 AM,64.4,60.8,88,29.90,10.0,SSW,8.1,-,N/A,,Mostly Cloudy,210,2013-08-01 13:11:00
9:56 AM,64.9,61.0,87,29.88,10.0,SW,9.2,-,0.00,,Overcast,230,2013-08-01 13:56:00
10:26 AM,64.4,60.8,88,29.90,10.0,SW,9.2,16.1,N/A,,Overcast,230,2013-08-01 14:26:00
10:34 AM,64.4,60.8,88,29.90,8.0,WSW,10.4,16.1,N/A,,Overcast,240,2013-08-01 14:34:00
10:56 AM,64.0,61.0,90,29.88,4.0,WSW,5.8,-,0.00,Rain,Light Rain,250,2013-08-01 14:56:00
11:06 AM,64.4,60.8,88,29.90,6.0,WSW,6.9,-,0.00,Rain,Light Rain,250,2013-08-01 15:06:00
11:27 AM,66.2,62.6,88,29.90,10.0,WSW,10.4,17.3,0.00,,Overcast,240,2013-08-01 15:27:00
11:44 AM,66.2,62.6,88,29.90,10.0,WSW,13.8,17.3,0.00,,Overcast,250,2013-08-01 15:44:00
11:56 AM,68.0,62.1,81,29.87,10.0,WSW,11.5,18.4,0.00,,Overcast,240,2013-08-01 15:56:00
12:56 PM,72.0,62.1,71,29.86,10.0,West,11.5,19.6,N/A,,Mostly Cloudy,270,2013-08-01 16:56:00
1:23 PM,71.6,59.0,64,29.90,10.0,WNW,20.7,26.5,N/A,,Mostly Cloudy,290,2013-08-01 17:23:00
1:56 PM,73.9,57.9,57,29.87,10.0,WNW,15.0,26.5,N/A,,Scattered Clouds,290,2013-08-01 17:56:00
2:56 PM,73.0,57.0,57,29.88,10.0,WNW,15.0,-,N/A,,Partly Cloudy,290,2013-08-01 18:56:00
3:56 PM,73.9,59.0,59,29.88,10.0,West,10.4,-,N/A,,Mostly Cloudy,280,2013-08-01 19:56:00
4:56 PM,72.0,55.9,57,29.88,10.0,WNW,10.4,21.9,N/A,,Clear,290,2013-08-01 20:56:00
5:56 PM,70.0,57.0,63,29.89,10.0,NW,9.2,-,N/A,,Scattered Clouds,310,2013-08-01 21:56:00
6:56 PM,70.0,54.0,57,29.90,10.0,WNW,10.4,-,N/A,,Clear,300,2013-08-01 22:56:00
7:56 PM,66.0,53.1,63,29.91,10.0,WNW,9.2,-,N/A,,Clear,300,2013-08-01 23:56:00
8:56 PM,61.0,53.1,75,29.92,10.0,West,6.9,-,N/A,,Clear,280,2013-08-02 00:56:00
9:56 PM,60.1,54.0,80,29.93,10.0,WNW,6.9,-,N/A,,Clear,290,2013-08-02 01:56:00
10:56 PM,61.0,55.0,81,29.93,10.0,WNW,4.6,-,N/A,,Clear,290,2013-08-02 02:56:00
11:56 PM,59.0,54.0,83,29.93,10.0,West,3.5,-,N/A,,Clear,280,2013-08-02 03:56:00